Time;durP1;ratioP1;P1;durP2;ratioP2;P2;SDS_P1;SDS_P2;PMS_P1;PMS_P2;Temp;Humidity;BMP_temperature;BMP_pressure;BME280_temperature;BME280_humidity;BME280_pressure;Samples;Min_cycle;Max_cycle;Signal;HPM_P1;HPM_P2
2023/05/27 00:00:47;;;;;;;;;;;23.00;47.60;;;;;;1547657;74;1512;-57
2023/05/27 00:02:49;;;;;;;;;;;23.00;47.60;;;;;;1570623;74;804;-58
2023/05/27 00:04:51;;;;;;;;;;;23.00;47.60;;;;;;1567138;74;770;-58
2023/05/27 00:06:53;;;;;;;;;;;23.10;47.70;;;;;;1572511;74;1158;-57
2023/05/27 00:08:55;;;;;;;;;;;23.00;47.60;;;;;;1576555;74;744;-57
2023/05/27 00:10:57;;;;;;;;;;;23.10;47.70;;;;;;1569307;74;1085;-57
2023/05/27 00:12:59;;;;;;;;;;;23.10;47.70;;;;;;1576229;74;672;-57
2023/05/27 00:15:01;;;;;;;;;;;23.10;47.70;;;;;;1580501;74;1458;-57
2023/05/27 00:17:03;;;;;;;;;;;23.00;47.60;;;;;;1577006;74;1942;-57
2023/05/27 00:19:05;;;;;;;;;;;23.00;47.60;;;;;;1576869;74;770;-57
2023/05/27 00:21:07;;;;;;;;;;;23.00;47.60;;;;;;1565824;74;779;-57
2023/05/27 00:23:09;;;;;;;;;;;23.00;47.60;;;;;;1578647;74;769;-57
2023/05/27 00:25:11;;;;;;;;;;;23.10;47.80;;;;;;1579696;74;746;-57
2023/05/27 00:27:12;;;;;;;;;;;23.00;47.60;;;;;;1574751;74;1113;-57
2023/05/27 00:29:16;;;;;;;;;;;23.00;47.60;;;;;;1585553;74;1337;-58
2023/05/27 00:31:18;;;;;;;;;;;23.00;47.60;;;;;;1583087;74;714;-57
2023/05/27 00:33:21;;;;;;;;;;;23.10;47.80;;;;;;1587627;74;629;-58
2023/05/27 00:35:23;;;;;;;;;;;23.00;47.60;;;;;;1587895;74;741;-58
2023/05/27 00:37:24;;;;;;;;;;;23.00;47.60;;;;;;1590492;73;1965;-58
2023/05/27 00:39:26;;;;;;;;;;;23.00;47.60;;;;;;1573822;74;736;-58
2023/05/27 00:41:28;;;;;;;;;;;23.00;47.60;;;;;;1569014;74;736;-58
2023/05/27 00:43:30;;;;;;;;;;;23.00;47.60;;;;;;1579496;73;1494;-58
2023/05/27 00:45:32;;;;;;;;;;;23.00;47.60;;;;;;1574007;74;722;-58
2023/05/27 00:47:34;;;;;;;;;;;23.00;47.70;;;;;;1584215;74;1152;-58
2023/05/27 00:49:36;;;;;;;;;;;23.00;47.60;;;;;;1586298;74;673;-58
2023/05/27 00:51:38;;;;;;;;;;;23.00;47.60;;;;;;1563144;74;692;-57
2023/05/27 00:53:41;;;;;;;;;;;23.00;47.60;;;;;;1571051;74;707;-58
2023/05/27 00:55:43;;;;;;;;;;;23.00;47.70;;;;;;1576141;74;815;-58
2023/05/27 00:57:44;;;;;;;;;;;23.00;47.70;;;;;;1570098;74;1942;-58
2023/05/27 00:59:47;;;;;;;;;;;23.00;47.70;;;;;;1582620;74;771;-58
2023/05/27 01:01:49;;;;;;;;;;;23.00;47.70;;;;;;1583718;74;750;-58
2023/05/27 01:03:52;;;;;;;;;;;23.00;47.70;;;;;;1581082;74;715;-57
2023/05/27 01:05:55;;;;;;;;;;;22.90;47.70;;;;;;1580769;74;755;-58
2023/05/27 01:08:01;;;;;;;;;;;23.00;47.70;;;;;;1569050;74;1176;-58
2023/05/27 01:10:21;;;;;;;;;;;23.00;47.70;;;;;;1580904;74;671;-58
2023/05/27 01:12:34;;;;;;;;;;;23.00;47.70;;;;;;1571018;74;1601;-59
2023/05/27 01:14:37;;;;;;;;;;;23.00;47.70;;;;;;1575456;74;1033;-57
2023/05/27 01:16:45;;;;;;;;;;;22.90;47.70;;;;;;1585531;73;1957;-57
2023/05/27 01:18:47;;;;;;;;;;;22.90;47.80;;;;;;1573721;74;738;-58
2023/05/27 01:20:49;;;;;;;;;;;23.00;47.70;;;;;;1584427;74;666;-57
2023/05/27 01:22:53;;;;;;;;;;;23.00;47.70;;;;;;1568567;74;657;-57
2023/05/27 01:24:55;;;;;;;;;;;22.90;47.80;;;;;;1568141;74;689;-59
2023/05/27 01:27:00;;;;;;;;;;;22.90;47.80;;;;;;1597635;73;1873;-59
2023/05/27 01:29:01;;;;;;;;;;;23.00;47.80;;;;;;1577626;74;1993;-58
2023/05/27 01:31:04;;;;;;;;;;;22.90;47.70;;;;;;1587282;74;691;-59
2023/05/27 01:33:10;;;;;;;;;;;22.90;47.80;;;;;;1571756;74;1679;-57
2023/05/27 01:35:26;;;;;;;;;;;22.90;47.70;;;;;;1571426;74;785;-58
2023/05/27 01:37:30;;;;;;;;;;;22.90;47.80;;;;;;1581799;74;1946;-58
2023/05/27 01:39:31;;;;;;;;;;;22.90;47.80;;;;;;1577845;74;1530;-58
2023/05/27 01:41:33;;;;;;;;;;;22.90;47.80;;;;;;1573862;74;722;-58
2023/05/27 01:43:37;;;;;;;;;;;22.90;47.80;;;;;;1580701;74;823;-58
2023/05/27 01:45:39;;;;;;;;;;;22.90;47.80;;;;;;1585199;74;780;-58
2023/05/27 01:47:40;;;;;;;;;;;22.80;47.60;;;;;;1583851;74;1125;-58
2023/05/27 01:49:42;;;;;;;;;;;22.80;47.60;;;;;;1564594;74;729;-58
2023/05/27 01:51:44;;;;;;;;;;;22.90;47.70;;;;;;1576229;74;670;-58
2023/05/27 01:53:46;;;;;;;;;;;22.90;47.80;;;;;;1581265;74;1442;-58
2023/05/27 01:55:48;;;;;;;;;;;22.90;47.80;;;;;;1583878;74;701;-58
2023/05/27 01:57:50;;;;;;;;;;;22.90;47.70;;;;;;1583828;74;1939;-58
2023/05/27 01:59:52;;;;;;;;;;;22.90;47.70;;;;;;1573298;74;671;-58
2023/05/27 02:01:54;;;;;;;;;;;22.90;47.70;;;;;;1583183;74;717;-57
2023/05/27 02:03:56;;;;;;;;;;;22.80;47.60;;;;;;1575142;74;714;-58
2023/05/27 02:05:58;;;;;;;;;;;22.90;47.70;;;;;;1571002;74;745;-58
2023/05/27 02:07:59;;;;;;;;;;;22.80;47.60;;;;;;1594691;73;1323;-58
2023/05/27 02:10:01;;;;;;;;;;;22.90;47.70;;;;;;1576519;74;709;-58
2023/05/27 02:12:04;;;;;;;;;;;22.90;47.80;;;;;;1569027;74;1072;-59
2023/05/27 02:14:07;;;;;;;;;;;22.90;47.80;;;;;;1591196;74;707;-58
2023/05/27 02:16:09;;;;;;;;;;;22.90;47.80;;;;;;1578818;74;714;-58
2023/05/27 02:18:12;;;;;;;;;;;22.90;47.80;;;;;;1579101;73;1953;-58
2023/05/27 02:20:14;;;;;;;;;;;22.90;47.80;;;;;;1576825;74;882;-58
2023/05/27 02:22:16;;;;;;;;;;;22.80;47.60;;;;;;1577450;74;1415;-58
2023/05/27 02:24:19;;;;;;;;;;;22.80;47.60;;;;;;1579438;74;624;-58
2023/05/27 02:26:21;;;;;;;;;;;22.80;47.60;;;;;;1583270;74;804;-57
2023/05/27 02:28:23;;;;;;;;;;;22.90;47.80;;;;;;1586545;74;1113;-59
2023/05/27 02:30:25;;;;;;;;;;;22.90;47.80;;;;;;1593160;74;655;-58
2023/05/27 02:32:27;;;;;;;;;;;22.80;47.60;;;;;;1589562;73;938;-58
2023/05/27 02:34:29;;;;;;;;;;;22.90;47.70;;;;;;1593739;74;706;-57
2023/05/27 02:36:31;;;;;;;;;;;22.90;47.70;;;;;;1581533;74;1429;-57
2023/05/27 02:38:33;;;;;;;;;;;22.90;47.80;;;;;;1582431;74;1950;-58
2023/05/27 02:40:35;;;;;;;;;;;22.90;47.80;;;;;;1582726;74;721;-58
2023/05/27 02:42:36;;;;;;;;;;;22.80;47.60;;;;;;1577413;74;770;-58
2023/05/27 02:44:39;;;;;;;;;;;22.90;47.80;;;;;;1590744;74;659;-58
2023/05/27 02:46:41;;;;;;;;;;;22.80;47.60;;;;;;1579726;74;1154;-58
2023/05/27 02:48:42;;;;;;;;;;;22.80;47.60;;;;;;1585166;73;733;-58
2023/05/27 02:50:45;;;;;;;;;;;22.90;47.70;;;;;;1587077;73;1342;-57
2023/05/27 02:52:46;;;;;;;;;;;22.80;47.60;;;;;;1589253;74;714;-58
2023/05/27 02:54:48;;;;;;;;;;;22.80;47.60;;;;;;1586487;74;780;-57
2023/05/27 02:56:50;;;;;;;;;;;22.80;47.60;;;;;;1576717;74;1114;-58
2023/05/27 02:58:52;;;;;;;;;;;22.80;47.60;;;;;;1590451;74;1941;-58
2023/05/27 03:00:54;;;;;;;;;;;22.80;47.60;;;;;;1577542;74;780;-58
2023/05/27 03:02:56;;;;;;;;;;;22.80;47.60;;;;;;1573237;74;746;-58
2023/05/27 03:05:00;;;;;;;;;;;22.80;47.50;;;;;;1582241;74;1420;-58
2023/05/27 03:07:02;;;;;;;;;;;22.90;47.70;;;;;;1587307;73;1195;-58
2023/05/27 03:09:04;;;;;;;;;;;22.90;47.70;;;;;;1590419;74;754;-58
2023/05/27 03:11:06;;;;;;;;;;;22.80;47.60;;;;;;1583418;74;723;-57
2023/05/27 03:13:08;;;;;;;;;;;22.90;47.60;;;;;;1584291;74;1057;-58
2023/05/27 03:15:10;;;;;;;;;;;22.90;47.70;;;;;;1577446;74;704;-59
2023/05/27 03:17:12;;;;;;;;;;;22.90;47.60;;;;;;1569315;74;1188;-57
2023/05/27 03:19:14;;;;;;;;;;;22.80;47.50;;;;;;1578307;74;1925;-58
2023/05/27 03:21:16;;;;;;;;;;;22.80;47.50;;;;;;1574100;74;657;-57
2023/05/27 03:23:17;;;;;;;;;;;22.80;47.50;;;;;;1582400;74;671;-59
2023/05/27 03:25:19;;;;;;;;;;;22.80;47.50;;;;;;1577427;74;710;-58
2023/05/27 03:27:21;;;;;;;;;;;22.80;47.50;;;;;;1561027;74;1130;-57
2023/05/27 03:29:23;;;;;;;;;;;22.90;47.60;;;;;;1577675;74;773;-58
2023/05/27 03:31:25;;;;;;;;;;;22.90;47.70;;;;;;1565316;74;710;-58
2023/05/27 03:33:27;;;;;;;;;;;22.80;47.40;;;;;;1584391;73;1214;-58
2023/05/27 03:35:29;;;;;;;;;;;22.90;47.60;;;;;;1570301;74;715;-58
2023/05/27 03:37:31;;;;;;;;;;;22.90;47.60;;;;;;1586674;73;1946;-57
2023/05/27 03:39:32;;;;;;;;;;;22.80;47.50;;;;;;1585249;74;735;-59
2023/05/27 03:41:34;;;;;;;;;;;22.80;47.50;;;;;;1572785;74;714;-57
2023/05/27 03:43:36;;;;;;;;;;;22.90;47.60;;;;;;1572976;74;720;-57
2023/05/27 03:45:38;;;;;;;;;;;22.90;47.60;;;;;;1577412;74;1568;-58
2023/05/27 03:47:40;;;;;;;;;;;22.90;47.60;;;;;;1554291;76;1164;-58
2023/05/27 03:49:42;;;;;;;;;;;22.90;47.60;;;;;;1509515;76;751;-59
2023/05/27 03:51:44;;;;;;;;;;;22.90;47.60;;;;;;1531135;77;727;-58
2023/05/27 03:53:46;;;;;;;;;;;22.80;47.50;;;;;;1533889;77;746;-58
2023/05/27 03:55:47;;;;;;;;;;;22.80;47.40;;;;;;1574289;74;741;-58
2023/05/27 03:57:49;;;;;;;;;;;22.80;47.50;;;;;;1566507;74;1930;-59
2023/05/27 03:59:51;;;;;;;;;;;22.90;47.60;;;;;;1578870;74;1484;-57
2023/05/27 04:01:53;;;;;;;;;;;22.90;47.60;;;;;;1577070;74;684;-58
2023/05/27 04:03:55;;;;;;;;;;;22.80;47.40;;;;;;1587580;74;775;-58
2023/05/27 04:05:57;;;;;;;;;;;22.90;47.60;;;;;;1574041;74;715;-59
2023/05/27 04:08:00;;;;;;;;;;;22.90;47.60;;;;;;1578029;74;1102;-58
2023/05/27 04:10:02;;;;;;;;;;;22.90;47.60;;;;;;1582151;74;696;-58
2023/05/27 04:12:06;;;;;;;;;;;22.80;47.40;;;;;;1579917;74;678;-58
2023/05/27 04:14:08;;;;;;;;;;;22.90;47.60;;;;;;1590541;73;1292;-59
2023/05/27 04:16:10;;;;;;;;;;;22.80;47.50;;;;;;1586034;74;720;-59
2023/05/27 04:18:12;;;;;;;;;;;22.90;47.60;;;;;;1591961;74;1931;-59
2023/05/27 04:20:14;;;;;;;;;;;22.80;47.50;;;;;;1581735;74;781;-57
2023/05/27 04:22:16;;;;;;;;;;;22.80;47.40;;;;;;1580675;74;727;-60
2023/05/27 04:24:18;;;;;;;;;;;22.80;47.50;;;;;;1584151;74;681;-58
2023/05/27 04:26:20;;;;;;;;;;;22.90;47.60;;;;;;1586129;74;753;-59
2023/05/27 04:28:22;;;;;;;;;;;22.80;47.40;;;;;;1579321;74;1430;-57
2023/05/27 04:30:25;;;;;;;;;;;22.90;47.60;;;;;;1593306;74;779;-58
2023/05/27 04:32:37;;;;;;;;;;;22.90;47.50;;;;;;1596424;73;671;-60
2023/05/27 04:34:37;;;;;;;;;;;22.80;47.40;;;;;;1584075;74;1148;-58
2023/05/27 04:36:38;;;;;;;;;;;22.80;47.40;;;;;;1581638;74;1121;-58
2023/05/27 04:38:45;;;;;;;;;;;22.90;47.60;;;;;;1589390;74;1943;-59
2023/05/27 04:40:52;;;;;;;;;;;22.90;47.60;;;;;;1590291;74;1565;-58
2023/05/27 04:42:51;;;;;;;;;;;22.90;47.60;;;;;;1580083;74;1604;-58
2023/05/27 04:44:53;;;;;;;;;;;22.90;47.60;;;;;;1587479;74;731;-58
2023/05/27 04:46:58;;;;;;;;;;;22.90;47.60;;;;;;1595169;73;1137;-58
2023/05/27 04:49:00;;;;;;;;;;;22.90;47.60;;;;;;1588748;74;761;-57
2023/05/27 04:51:02;;;;;;;;;;;22.90;47.50;;;;;;1579576;74;742;-58
2023/05/27 04:53:04;;;;;;;;;;;22.90;47.60;;;;;;1575785;74;715;-58
2023/05/27 04:55:06;;;;;;;;;;;22.90;47.60;;;;;;1580213;74;831;-58
2023/05/27 04:57:08;;;;;;;;;;;23.00;47.50;;;;;;1585820;73;1466;-58
2023/05/27 04:59:16;;;;;;;;;;;23.00;47.50;;;;;;1580791;74;1917;-58
2023/05/27 05:01:21;;;;;;;;;;;23.00;47.40;;;;;;1593359;73;1571;-59
2023/05/27 05:03:36;;;;;;;;;;;23.10;47.50;;;;;;1585579;74;635;-57
2023/05/27 05:05:26;;;;;;;;;;;23.10;47.40;;;;;;1585451;74;1590;-58
2023/05/27 05:07:28;;;;;;;;;;;23.10;47.30;;;;;;1574188;74;1150;-59
2023/05/27 05:09:30;;;;;;;;;;;23.20;47.30;;;;;;1579304;74;715;-57
2023/05/27 05:11:32;;;;;;;;;;;23.20;47.10;;;;;;1589527;74;1431;-58
2023/05/27 05:13:34;;;;;;;;;;;23.30;47.10;;;;;;1591210;74;693;-58
2023/05/27 05:15:36;;;;;;;;;;;23.30;47.00;;;;;;1582050;74;1078;-57
2023/05/27 05:17:38;;;;;;;;;;;23.30;47.00;;;;;;1582810;74;1188;-57
2023/05/27 05:19:40;;;;;;;;;;;23.40;46.90;;;;;;1583669;74;1935;-58
2023/05/27 05:21:42;;;;;;;;;;;23.40;46.90;;;;;;1586459;74;742;-60
2023/05/27 05:23:44;;;;;;;;;;;23.40;46.90;;;;;;1579861;74;665;-58
2023/05/27 05:25:47;;;;;;;;;;;23.40;46.80;;;;;;1588114;74;1452;-58
2023/05/27 05:27:48;;;;;;;;;;;23.40;46.80;;;;;;1562652;74;1126;-59
2023/05/27 05:29:50;;;;;;;;;;;23.30;46.90;;;;;;1584100;74;647;-59
2023/05/27 05:31:52;;;;;;;;;;;23.50;47.00;;;;;;1570772;74;690;-58
2023/05/27 05:33:54;;;;;;;;;;;23.40;46.80;;;;;;1564544;74;720;-58
2023/05/27 05:35:56;;;;;;;;;;;23.40;46.80;;;;;;1573283;74;755;-58
2023/05/27 05:37:58;;;;;;;;;;;23.40;46.70;;;;;;1577572;74;1097;-58
2023/05/27 05:40:00;;;;;;;;;;;23.40;46.60;;;;;;1576036;73;1972;-58
2023/05/27 05:42:02;;;;;;;;;;;23.40;46.60;;;;;;1568781;74;753;-57
2023/05/27 05:44:04;;;;;;;;;;;23.40;46.60;;;;;;1588062;74;795;-59
2023/05/27 05:46:06;;;;;;;;;;;23.50;46.60;;;;;;1581244;74;803;-58
2023/05/27 05:48:07;;;;;;;;;;;23.50;46.50;;;;;;1584407;74;1117;-58
2023/05/27 05:50:10;;;;;;;;;;;23.50;46.30;;;;;;1584729;74;726;-57
2023/05/27 05:52:12;;;;;;;;;;;23.50;46.30;;;;;;1575603;74;1449;-58
2023/05/27 05:54:13;;;;;;;;;;;23.50;46.20;;;;;;1585157;74;705;-58
2023/05/27 05:56:15;;;;;;;;;;;23.50;46.30;;;;;;1583241;74;792;-58
2023/05/27 05:58:17;;;;;;;;;;;23.50;46.00;;;;;;1579959;73;1923;-59
2023/05/27 06:00:19;;;;;;;;;;;23.60;46.00;;;;;;1569498;74;819;-58
2023/05/27 06:02:21;;;;;;;;;;;23.50;46.00;;;;;;1573663;74;699;-58
2023/05/27 06:04:23;;;;;;;;;;;23.60;46.10;;;;;;1574094;74;715;-58
2023/05/27 06:06:25;;;;;;;;;;;23.60;46.10;;;;;;1584348;74;1503;-58
2023/05/27 06:08:27;;;;;;;;;;;23.60;46.00;;;;;;1579015;74;1082;-58
2023/05/27 06:10:29;;;;;;;;;;;23.70;46.10;;;;;;1582373;74;799;-57
2023/05/27 06:12:31;;;;;;;;;;;23.70;46.00;;;;;;1575386;74;682;-58
2023/05/27 06:14:33;;;;;;;;;;;23.80;45.90;;;;;;1570764;74;1432;-58
2023/05/27 06:16:39;;;;;;;;;;;23.90;45.80;;;;;;1568492;74;1197;-57
2023/05/27 06:18:45;;;;;;;;;;;24.00;45.70;;;;;;1558097;74;1911;-58
2023/05/27 06:20:45;;;;;;;;;;;24.00;45.50;;;;;;1580954;74;1654;-58
2023/05/27 06:22:50;;;;;;;;;;;24.00;45.50;;;;;;1569665;74;789;-58
2023/05/27 06:24:51;;;;;;;;;;;24.10;45.50;;;;;;1573155;74;903;-58
2023/05/27 06:26:53;;;;;;;;;;;24.10;45.40;;;;;;1558279;74;1131;-58
2023/05/27 06:28:55;;;;;;;;;;;24.20;45.30;;;;;;1563107;74;778;-59
2023/05/27 06:30:57;;;;;;;;;;;24.20;45.20;;;;;;1551868;74;649;-58
2023/05/27 06:32:59;;;;;;;;;;;24.20;45.10;;;;;;1551512;74;744;-59
2023/05/27 06:35:01;;;;;;;;;;;24.20;45.00;;;;;;1568502;74;1477;-58
2023/05/27 06:37:03;;;;;;;;;;;24.20;44.90;;;;;;1568706;74;1153;-58
2023/05/27 06:39:05;;;;;;;;;;;24.30;45.00;;;;;;1554510;74;1921;-57
2023/05/27 06:41:07;;;;;;;;;;;24.30;45.00;;;;;;1566712;74;709;-58
2023/05/27 06:43:09;;;;;;;;;;;24.30;44.80;;;;;;1566520;74;749;-59
2023/05/27 06:45:11;;;;;;;;;;;24.30;44.80;;;;;;1575226;74;658;-60
2023/05/27 06:47:13;;;;;;;;;;;24.30;44.80;;;;;;1568025;74;1146;-58
2023/05/27 06:49:15;;;;;;;;;;;24.30;44.70;;;;;;1566122;74;1507;-58
2023/05/27 06:51:17;;;;;;;;;;;24.40;44.70;;;;;;1554155;74;598;-58
2023/05/27 06:53:19;;;;;;;;;;;24.40;44.70;;;;;;1563825;74;734;-58
2023/05/27 06:55:21;;;;;;;;;;;24.40;44.70;;;;;;1562432;74;757;-58
2023/05/27 06:57:23;;;;;;;;;;;24.40;44.70;;;;;;1556221;74;1154;-58
2023/05/27 06:59:24;;;;;;;;;;;24.40;44.50;;;;;;1572213;74;1926;-58
2023/05/27 07:01:26;;;;;;;;;;;24.30;44.50;;;;;;1582914;74;716;-57
2023/05/27 07:03:28;;;;;;;;;;;24.40;44.60;;;;;;1534068;76;1341;-58
2023/05/27 07:05:30;;;;;;;;;;;24.40;44.50;;;;;;1540429;76;705;-58
2023/05/27 07:07:32;;;;;;;;;;;24.40;44.50;;;;;;1524732;77;1120;-58
2023/05/27 07:09:34;;;;;;;;;;;24.40;44.40;;;;;;1514509;78;708;-59
2023/05/27 07:11:36;;;;;;;;;;;24.40;44.50;;;;;;1509751;77;735;-58
2023/05/27 07:13:38;;;;;;;;;;;24.40;44.40;;;;;;1584363;74;644;-58
2023/05/27 07:15:40;;;;;;;;;;;24.40;44.50;;;;;;1574810;74;1100;-59
2023/05/27 07:17:41;;;;;;;;;;;24.50;44.50;;;;;;1589467;74;1334;-58
2023/05/27 07:19:43;;;;;;;;;;;24.40;44.40;;;;;;1579578;74;1941;-59
2023/05/27 07:21:45;;;;;;;;;;;24.50;44.40;;;;;;1582290;74;744;-58
2023/05/27 07:23:47;;;;;;;;;;;24.50;44.40;;;;;;1587628;74;733;-58
2023/05/27 07:25:49;;;;;;;;;;;24.50;44.30;;;;;;1587185;74;715;-58
2023/05/27 07:27:51;;;;;;;;;;;24.50;44.50;;;;;;1582741;74;1161;-59
2023/05/27 07:29:53;;;;;;;;;;;24.50;44.40;;;;;;1572140;74;730;-58
2023/05/27 07:31:55;;;;;;;;;;;24.60;44.30;;;;;;1583442;74;1402;-59
2023/05/27 07:33:57;;;;;;;;;;;24.60;44.20;;;;;;1591634;74;742;-58
2023/05/27 07:35:59;;;;;;;;;;;24.60;44.20;;;;;;1579468;74;686;-59
2023/05/27 07:38:02;;;;;;;;;;;24.60;44.20;;;;;;1584783;74;1135;-58
2023/05/27 07:40:04;;;;;;;;;;;24.60;44.20;;;;;;1574179;74;1931;-58
2023/05/27 07:42:06;;;;;;;;;;;24.60;44.20;;;;;;1585361;74;726;-58
2023/05/27 07:44:08;;;;;;;;;;;24.70;44.20;;;;;;1577717;74;796;-57
2023/05/27 07:46:10;;;;;;;;;;;24.70;44.20;;;;;;1585474;73;1450;-58
2023/05/27 07:48:12;;;;;;;;;;;24.60;44.00;;;;;;1578422;73;1119;-58
2023/05/27 07:50:14;;;;;;;;;;;24.70;44.10;;;;;;1587803;74;788;-57
2023/05/27 07:52:17;;;;;;;;;;;24.60;43.90;;;;;;1590032;74;673;-57
2023/05/27 07:54:19;;;;;;;;;;;24.60;43.90;;;;;;1573667;74;777;-58
2023/05/27 07:56:21;;;;;;;;;;;24.60;43.90;;;;;;1574854;74;732;-57
2023/05/27 07:58:22;;;;;;;;;;;24.60;43.90;;;;;;1571883;74;1157;-57
2023/05/27 08:00:24;;;;;;;;;;;24.60;44.00;;;;;;1579883;74;1924;-57
2023/05/27 08:02:26;;;;;;;;;;;24.60;43.90;;;;;;1582806;74;729;-57
2023/05/27 08:04:28;;;;;;;;;;;24.60;44.00;;;;;;1579982;74;719;-58
2023/05/27 08:06:30;;;;;;;;;;;24.70;44.10;;;;;;1587683;74;575;-57
2023/05/27 08:08:32;;;;;;;;;;;24.70;44.20;;;;;;1592220;73;1089;-58
2023/05/27 08:10:34;;;;;;;;;;;24.60;44.00;;;;;;1582683;74;729;-58
2023/05/27 08:12:36;;;;;;;;;;;24.70;44.20;;;;;;1584956;74;799;-57
2023/05/27 08:14:39;;;;;;;;;;;24.60;44.10;;;;;;1589447;74;1680;-58
2023/05/27 08:16:41;;;;;;;;;;;24.60;44.00;;;;;;1581668;74;1179;-57
2023/05/27 08:18:42;;;;;;;;;;;24.60;44.00;;;;;;1588118;74;723;-57
2023/05/27 08:20:44;;;;;;;;;;;24.60;44.00;;;;;;1593040;74;1931;-58
2023/05/27 08:22:46;;;;;;;;;;;24.70;44.10;;;;;;1576963;74;759;-57
2023/05/27 08:24:49;;;;;;;;;;;24.60;44.00;;;;;;1586530;74;670;-58
2023/05/27 08:26:51;;;;;;;;;;;24.60;43.90;;;;;;1586955;74;1171;-58
2023/05/27 08:28:54;;;;;;;;;;;24.60;43.90;;;;;;1591346;74;671;-57
2023/05/27 08:30:55;;;;;;;;;;;24.70;44.00;;;;;;1594974;74;750;-58
2023/05/27 08:32:58;;;;;;;;;;;24.70;44.00;;;;;;1575478;74;657;-58
2023/05/27 08:34:59;;;;;;;;;;;24.60;43.90;;;;;;1591133;74;684;-57
2023/05/27 08:37:03;;;;;;;;;;;24.70;44.00;;;;;;1591017;73;1137;-57
2023/05/27 08:39:05;;;;;;;;;;;24.70;44.00;;;;;;1581813;74;753;-59
2023/05/27 08:41:06;;;;;;;;;;;24.70;44.00;;;;;;1588599;74;1910;-58
2023/05/27 08:43:08;;;;;;;;;;;24.70;43.90;;;;;;1592246;73;726;-58
2023/05/27 08:45:10;;;;;;;;;;;24.70;44.00;;;;;;1578554;74;755;-58
2023/05/27 08:47:14;;;;;;;;;;;24.70;44.00;;;;;;1570362;74;1113;-58
2023/05/27 08:49:16;;;;;;;;;;;24.60;43.90;;;;;;1581191;74;694;-58
2023/05/27 08:51:23;;;;;;;;;;;24.70;44.00;;;;;;1575111;74;737;-58
2023/05/27 08:53:22;;;;;;;;;;;24.70;43.90;;;;;;1566465;74;1128;-58
2023/05/27 08:55:25;;;;;;;;;;;24.70;44.00;;;;;;1580032;74;799;-58
2023/05/27 08:57:28;;;;;;;;;;;24.70;44.00;;;;;;1590356;73;1208;-58
2023/05/27 08:59:30;;;;;;;;;;;24.60;43.90;;;;;;1576033;74;1918;-58
2023/05/27 09:01:32;;;;;;;;;;;24.60;43.90;;;;;;1572179;74;784;-60
2023/05/27 09:03:34;;;;;;;;;;;24.60;43.90;;;;;;1578804;74;693;-58
2023/05/27 09:05:36;;;;;;;;;;;24.70;44.00;;;;;;1585458;74;692;-58
2023/05/27 09:07:41;;;;;;;;;;;24.70;44.00;;;;;;1588905;74;1139;-58
2023/05/27 09:09:43;;;;;;;;;;;24.70;44.00;;;;;;1582114;74;747;-58
2023/05/27 09:11:45;;;;;;;;;;;24.60;43.90;;;;;;1586340;73;709;-58
2023/05/27 09:13:47;;;;;;;;;;;24.70;44.00;;;;;;1581175;74;726;-58
2023/05/27 09:15:49;;;;;;;;;;;24.60;43.90;;;;;;1592375;74;715;-58
2023/05/27 09:17:51;;;;;;;;;;;24.60;43.90;;;;;;1587775;73;1172;-59
2023/05/27 09:19:53;;;;;;;;;;;24.70;44.00;;;;;;1579997;74;1940;-58
2023/05/27 09:21:55;;;;;;;;;;;24.60;43.90;;;;;;1583796;74;726;-58
2023/05/27 09:24:00;;;;;;;;;;;24.60;43.90;;;;;;1582911;73;1413;-58
2023/05/27 09:26:01;;;;;;;;;;;24.70;44.10;;;;;;1597110;73;748;-58
2023/05/27 09:28:05;;;;;;;;;;;24.70;44.00;;;;;;1597922;73;1194;-58
2023/05/27 09:30:08;;;;;;;;;;;24.60;43.90;;;;;;1594918;74;883;-58
2023/05/27 09:32:10;;;;;;;;;;;24.70;44.10;;;;;;1585885;74;724;-58
2023/05/27 09:34:13;;;;;;;;;;;24.60;44.00;;;;;;1594250;74;783;-58
2023/05/27 09:36:14;;;;;;;;;;;24.70;44.10;;;;;;1587570;74;672;-58
2023/05/27 09:38:16;;;;;;;;;;;24.60;44.00;;;;;;1549938;76;1154;-58
2023/05/27 09:40:18;;;;;;;;;;;24.60;44.00;;;;;;1528744;76;1909;-57
2023/05/27 09:42:20;;;;;;;;;;;24.60;44.00;;;;;;1594430;74;612;-57
2023/05/27 09:44:24;;;;;;;;;;;24.60;44.00;;;;;;1588731;74;694;-58
2023/05/27 09:46:26;;;;;;;;;;;24.60;44.10;;;;;;1584130;74;1675;-58
2023/05/27 09:48:29;;;;;;;;;;;24.70;44.20;;;;;;1580365;74;1079;-58
2023/05/27 09:50:31;;;;;;;;;;;24.60;44.10;;;;;;1587098;74;763;-58
2023/05/27 09:52:33;;;;;;;;;;;24.60;44.10;;;;;;1585674;74;803;-58
2023/05/27 09:54:35;;;;;;;;;;;24.50;44.10;;;;;;1586781;74;729;-58
2023/05/27 09:56:37;;;;;;;;;;;24.60;44.10;;;;;;1588412;73;1156;-60
2023/05/27 09:58:39;;;;;;;;;;;24.60;44.10;;;;;;1585823;73;719;-59
2023/05/27 10:00:41;;;;;;;;;;;24.50;44.10;;;;;;1588477;73;1929;-58
2023/05/27 10:02:44;;;;;;;;;;;24.50;44.20;;;;;;1591032;74;714;-58
2023/05/27 10:04:48;;;;;;;;;;;24.60;44.10;;;;;;1592353;74;698;-58
2023/05/27 10:06:49;;;;;;;;;;;24.50;44.10;;;;;;1591313;74;1140;-58
2023/05/27 10:08:55;;;;;;;;;;;24.50;44.20;;;;;;1588399;74;713;-58
2023/05/27 10:10:57;;;;;;;;;;;24.60;44.20;;;;;;1585392;73;777;-58
2023/05/27 10:12:59;;;;;;;;;;;24.50;44.20;;;;;;1578159;74;722;-59
2023/05/27 10:15:01;;;;;;;;;;;24.50;44.20;;;;;;1583055;74;724;-58
2023/05/27 10:17:03;;;;;;;;;;;24.50;44.20;;;;;;1593870;74;1316;-58
2023/05/27 10:19:07;;;;;;;;;;;24.50;44.30;;;;;;1592129;74;675;-58
2023/05/27 10:21:08;;;;;;;;;;;24.40;44.20;;;;;;1580561;73;1949;-58
2023/05/27 10:23:21;;;;;;;;;;;24.50;44.30;;;;;;1592250;74;708;-58
2023/05/27 10:25:23;;;;;;;;;;;24.50;44.40;;;;;;1574668;74;702;-58
2023/05/27 10:27:25;;;;;;;;;;;24.40;44.30;;;;;;1581909;74;1165;-58
2023/05/27 10:29:29;;;;;;;;;;;24.40;44.30;;;;;;1580398;74;722;-58
2023/05/27 10:31:30;;;;;;;;;;;24.40;44.30;;;;;;1589775;74;1050;-58
2023/05/27 10:33:34;;;;;;;;;;;24.40;44.30;;;;;;1583855;74;671;-57
2023/05/27 10:35:41;;;;;;;;;;;24.30;44.40;;;;;;1578244;74;1675;-58
2023/05/27 10:37:43;;;;;;;;;;;24.40;44.40;;;;;;1589699;74;1564;-58
2023/05/27 10:39:46;;;;;;;;;;;24.40;44.40;;;;;;1574351;74;724;-58
2023/05/27 10:41:52;;;;;;;;;;;24.30;44.40;;;;;;1579017;74;2048;-58
2023/05/27 10:43:57;;;;;;;;;;;24.30;44.40;;;;;;1574457;74;738;-58
2023/05/27 10:46:04;;;;;;;;;;;24.40;44.40;;;;;;1575493;74;798;-58
2023/05/27 10:48:07;;;;;;;;;;;24.30;44.40;;;;;;1579739;74;1711;-59
2023/05/27 10:50:13;;;;;;;;;;;24.30;44.50;;;;;;1581992;74;876;-58
2023/05/27 10:52:16;;;;;;;;;;;24.30;44.50;;;;;;1575592;74;715;-58
2023/05/27 10:54:18;;;;;;;;;;;24.30;44.50;;;;;;1581339;74;769;-59
2023/05/27 10:56:21;;;;;;;;;;;24.30;44.50;;;;;;1572167;74;784;-58
2023/05/27 10:58:23;;;;;;;;;;;24.30;44.60;;;;;;1591153;74;1108;-58
2023/05/27 11:00:25;;;;;;;;;;;24.30;44.50;;;;;;1597384;74;1930;-58
2023/05/27 11:02:30;;;;;;;;;;;24.20;44.40;;;;;;1582561;74;763;-59
2023/05/27 11:04:37;;;;;;;;;;;24.20;44.40;;;;;;1579863;74;706;-58
2023/05/27 11:06:40;;;;;;;;;;;24.20;44.40;;;;;;1586633;74;1151;-58
2023/05/27 11:08:42;;;;;;;;;;;24.20;44.40;;;;;;1587686;74;771;-58
2023/05/27 11:10:44;;;;;;;;;;;24.30;44.60;;;;;;1577200;74;744;-58
2023/05/27 11:12:48;;;;;;;;;;;24.30;44.60;;;;;;1580606;74;718;-58
2023/05/27 11:14:53;;;;;;;;;;;24.20;44.50;;;;;;1583688;74;698;-60
2023/05/27 11:16:55;;;;;;;;;;;24.20;44.60;;;;;;1587235;74;1407;-58
2023/05/27 11:18:58;;;;;;;;;;;24.20;44.50;;;;;;1581022;74;1235;-60
2023/05/27 11:21:01;;;;;;;;;;;24.20;44.60;;;;;;1586772;74;1918;-58
2023/05/27 11:23:03;;;;;;;;;;;24.30;44.70;;;;;;1551621;74;747;-58
2023/05/27 11:25:06;;;;;;;;;;;24.20;44.60;;;;;;1590758;73;705;-59
2023/05/27 11:27:11;;;;;;;;;;;24.20;44.70;;;;;;1572824;74;1190;-59
2023/05/27 11:29:14;;;;;;;;;;;24.20;44.70;;;;;;1592188;74;639;-58
2023/05/27 11:31:16;;;;;;;;;;;24.20;44.70;;;;;;1584005;74;650;-58
2023/05/27 11:33:17;;;;;;;;;;;24.10;44.80;;;;;;1587639;74;821;-58
2023/05/27 11:35:19;;;;;;;;;;;24.00;44.70;;;;;;1583751;74;669;-58
2023/05/27 11:37:21;;;;;;;;;;;24.00;44.80;;;;;;1593688;74;1148;-58
2023/05/27 11:39:23;;;;;;;;;;;24.10;45.00;;;;;;1584952;74;803;-58
2023/05/27 11:41:31;;;;;;;;;;;24.00;44.90;;;;;;1581408;74;1926;-58
2023/05/27 11:43:33;;;;;;;;;;;24.00;44.90;;;;;;1573756;74;750;-58
2023/05/27 11:45:38;;;;;;;;;;;24.00;44.90;;;;;;1575168;74;739;-58
2023/05/27 11:47:46;;;;;;;;;;;24.00;44.90;;;;;;1526404;76;1144;-57
2023/05/27 11:49:51;;;;;;;;;;;24.00;44.90;;;;;;1588179;74;744;-58
2023/05/27 11:51:54;;;;;;;;;;;24.00;44.90;;;;;;1578680;74;811;-59
2023/05/27 11:53:56;;;;;;;;;;;24.00;44.90;;;;;;1574552;74;749;-59
2023/05/27 11:55:58;;;;;;;;;;;24.00;44.90;;;;;;1582368;74;719;-59
2023/05/27 11:58:00;;;;;;;;;;;24.10;45.00;;;;;;1591107;74;1101;-58
2023/05/27 12:00:03;;;;;;;;;;;24.00;44.90;;;;;;1594486;74;734;-58
2023/05/27 12:02:05;;;;;;;;;;;24.10;45.00;;;;;;1586633;74;1915;-58
2023/05/27 12:04:07;;;;;;;;;;;24.10;45.00;;;;;;1580069;74;800;-58
2023/05/27 12:06:09;;;;;;;;;;;24.10;45.00;;;;;;1572635;74;736;-58
2023/05/27 12:08:11;;;;;;;;;;;24.00;44.90;;;;;;1581368;74;1122;-58
2023/05/27 12:10:13;;;;;;;;;;;24.10;45.00;;;;;;1571224;74;647;-58